createdAt,value
2023-02-03T05:02:33.584Z,8.93
2023-02-03T05:05:00.140Z,9.02
2023-02-03T05:07:26.664Z,9.06
2023-02-03T05:09:53.269Z,9.12
2023-02-03T05:12:19.824Z,9.13
2023-02-03T05:14:46.352Z,9.08
2023-02-03T05:17:13.168Z,9.16
2023-02-03T05:19:39.685Z,9.20
2023-02-03T05:22:06.201Z,9.20
2023-02-03T05:24:32.744Z,9.18
2023-02-03T05:26:59.260Z,9.15
2023-02-03T05:29:25.808Z,9.05
2023-02-03T05:31:52.484Z,9.13
2023-02-03T05:34:19.013Z,9.09
2023-02-03T05:36:45.778Z,8.99
2023-02-03T05:39:12.365Z,8.98
2023-02-03T05:41:56.432Z,8.99
2023-02-03T05:44:26.086Z,9.03
2023-02-03T05:46:54.641Z,8.98
2023-02-03T05:49:23.184Z,9.03
2023-02-03T05:51:51.908Z,9.02
2023-02-03T05:54:18.506Z,9.02
2023-02-03T05:56:45.057Z,9.05
2023-02-03T05:59:11.643Z,9.01
2023-02-03T06:01:38.533Z,8.89
2023-02-03T06:04:05.453Z,8.93
2023-02-03T06:06:35.041Z,9.03
2023-02-03T06:09:06.209Z,8.96
2023-02-03T06:11:33.498Z,8.99
2023-02-03T06:14:00.644Z,8.93
2023-02-03T06:16:28.744Z,8.98
2023-02-03T06:19:00.877Z,8.96
2023-02-03T06:21:28.001Z,9.02
2023-02-03T06:23:55.949Z,8.98
2023-02-03T06:26:22.673Z,8.99
2023-02-03T06:28:49.361Z,9.02
2023-02-03T06:31:16.054Z,8.99
2023-02-03T06:33:42.752Z,8.86
2023-02-03T06:36:09.555Z,8.96
2023-02-03T06:38:36.128Z,8.95
2023-02-03T06:41:02.784Z,8.98
2023-02-03T06:43:29.440Z,8.91
2023-02-03T06:45:56.005Z,8.95
2023-02-03T06:48:23.365Z,8.98
2023-02-03T06:50:49.883Z,8.81
2023-02-03T06:53:16.374Z,8.75
2023-02-03T06:55:42.916Z,8.69
2023-02-03T06:58:09.465Z,8.68
2023-02-03T07:00:36.048Z,8.76
2023-02-03T07:03:03.072Z,8.79
2023-02-03T07:05:29.974Z,8.75
2023-02-03T07:07:56.615Z,8.71
2023-02-03T07:10:23.337Z,8.78
2023-02-03T07:12:50.908Z,8.86
2023-02-03T07:15:18.100Z,8.86
2023-02-03T07:17:47.016Z,8.86
2023-02-03T07:20:13.528Z,8.83
2023-02-03T07:22:42.398Z,8.86
2023-02-03T07:25:09.025Z,9.02
2023-02-03T07:27:35.524Z,8.96
2023-02-03T07:30:02.067Z,8.99
2023-02-03T07:32:28.615Z,8.99
2023-02-03T07:34:55.174Z,9.05
2023-02-03T07:37:21.698Z,8.88
2023-02-03T07:39:48.284Z,9.02
2023-02-03T07:42:14.799Z,9.05
2023-02-03T07:44:41.301Z,8.96
2023-02-03T07:47:07.926Z,9.01
2023-02-03T07:49:34.440Z,9.09
2023-02-03T07:52:01.010Z,9.10
2023-02-03T07:54:27.591Z,9.02
2023-02-03T07:56:54.474Z,9.02
2023-02-03T07:59:21.334Z,8.91
2023-02-03T08:01:48.046Z,9.03
2023-02-03T08:04:16.606Z,9.10
2023-02-03T08:06:44.000Z,9.10
2023-02-03T08:09:10.589Z,9.08
2023-02-03T08:11:37.157Z,9.12
2023-02-03T08:14:03.974Z,9.09
2023-02-03T08:16:30.617Z,9.12
2023-02-03T08:18:57.996Z,9.01
2023-02-03T08:21:24.595Z,9.01
2023-02-03T08:23:51.184Z,9.13
2023-02-03T08:26:17.705Z,9.18
2023-02-03T08:28:49.268Z,9.16
2023-02-03T08:31:15.955Z,9.15
2023-02-03T08:33:42.515Z,9.08
2023-02-03T08:36:09.765Z,9.18
2023-02-03T08:38:36.466Z,9.30
2023-02-03T08:41:09.217Z,9.31
2023-02-03T08:43:36.409Z,9.43
2023-02-03T08:46:07.616Z,9.37
2023-02-03T08:48:34.824Z,9.41
2023-02-03T08:51:01.545Z,9.24
2023-02-03T08:53:28.402Z,9.43
2023-02-03T08:55:56.371Z,9.41
2023-02-03T08:58:23.035Z,9.30
2023-02-03T09:00:50.045Z,9.36
2023-02-03T09:03:16.733Z,9.27
2023-02-03T09:05:43.319Z,9.40
2023-02-03T09:08:09.969Z,9.50
2023-02-03T09:10:36.657Z,9.47
2023-02-03T09:13:03.738Z,9.37
2023-02-03T09:15:30.320Z,9.58
2023-02-03T09:17:57.943Z,9.54
2023-02-03T09:20:27.353Z,9.57
2023-02-03T09:22:54.980Z,9.68
2023-02-03T09:25:21.698Z,9.54
2023-02-03T09:27:48.348Z,9.58
2023-02-03T09:30:15.090Z,9.51
2023-02-03T09:32:41.686Z,9.65
2023-02-03T09:35:08.391Z,9.85
2023-02-03T09:37:34.998Z,9.85
2023-02-03T09:40:01.665Z,9.75
2023-02-03T09:42:52.971Z,9.88
2023-02-03T09:45:30.663Z,10.02
2023-02-03T09:48:10.107Z,9.92
2023-02-03T09:50:39.276Z,10.01
2023-02-03T09:53:30.142Z,10.28
2023-02-03T09:55:58.561Z,10.42
2023-02-03T09:58:28.979Z,10.57
2023-02-03T10:01:01.853Z,10.57
2023-02-03T10:03:40.677Z,10.70
2023-02-03T10:06:28.228Z,10.85
2023-02-03T10:09:40.813Z,11.00
2023-02-03T10:12:20.888Z,11.04
2023-02-03T10:15:05.506Z,10.80
2023-02-03T10:17:45.709Z,10.84
2023-02-03T10:20:18.739Z,10.90
2023-02-03T10:22:57.822Z,10.88
2023-02-03T10:25:33.764Z,11.07
2023-02-03T10:28:04.824Z,11.05
2023-02-03T10:30:45.281Z,11.07
2023-02-03T10:33:16.391Z,11.08
2023-02-03T10:36:12.295Z,11.01
2023-02-03T10:38:48.865Z,11.01
2023-02-03T10:41:17.881Z,11.00
2023-02-03T10:43:51.452Z,10.94
2023-02-03T10:46:29.857Z,11.01
2023-02-03T10:48:57.200Z,11.05
2023-02-03T10:51:36.645Z,11.03
2023-02-03T10:54:03.447Z,11.04
2023-02-03T10:56:36.815Z,10.94
2023-02-03T10:59:04.708Z,11.05
2023-02-03T11:01:31.252Z,11.10
2023-02-03T11:04:01.845Z,11.19
2023-02-03T11:06:29.086Z,11.24
2023-02-03T11:08:55.971Z,11.21
2023-02-03T11:11:26.409Z,11.26
2023-02-03T11:14:01.857Z,11.26
2023-02-03T11:16:32.996Z,11.26
2023-02-03T11:18:59.535Z,11.31
2023-02-03T11:21:42.795Z,11.35
2023-02-03T11:24:11.821Z,11.35
2023-02-03T11:26:56.991Z,11.35
2023-02-03T11:29:28.943Z,11.46
2023-02-03T11:31:58.057Z,11.45
2023-02-03T11:34:30.460Z,11.40
2023-02-03T11:36:57.431Z,11.42
2023-02-03T11:39:26.090Z,11.38
2023-02-03T11:41:52.991Z,11.39
2023-02-03T11:44:29.519Z,11.35
2023-02-03T11:47:08.918Z,11.42
2023-02-03T11:49:38.506Z,11.34
2023-02-03T11:52:24.570Z,11.34
2023-02-03T11:55:09.494Z,11.35
2023-02-03T11:57:39.127Z,11.34
2023-02-03T12:00:22.123Z,11.35
2023-02-03T12:02:56.975Z,11.49
2023-02-03T12:05:29.378Z,11.51
2023-02-03T12:08:17.876Z,11.55
2023-02-03T12:11:03.183Z,11.45
2023-02-03T12:13:46.179Z,11.53
2023-02-03T12:16:38.504Z,11.52
2023-02-03T12:19:37.414Z,11.55
2023-02-03T12:22:15.171Z,11.59
2023-02-03T12:24:55.124Z,11.55
2023-02-03T12:27:49.574Z,11.66
2023-02-03T12:30:22.338Z,11.63
2023-02-03T12:32:55.913Z,11.77
2023-02-03T12:35:36.391Z,11.86
2023-02-03T12:38:13.286Z,11.86
2023-02-03T12:40:55.279Z,11.77
2023-02-03T12:43:39.497Z,11.86
2023-02-03T12:46:18.030Z,11.90
2023-02-03T12:49:04.351Z,11.89
2023-02-03T12:51:36.970Z,11.97
2023-02-03T12:54:25.330Z,12.05
2023-02-03T12:56:55.436Z,12.08
2023-02-03T12:59:29.993Z,12.18
2023-02-03T13:02:00.887Z,12.08
2023-02-03T13:04:38.950Z,12.08
2023-02-03T13:07:30.555Z,11.98
2023-02-03T13:10:14.642Z,11.94
2023-02-03T13:12:49.726Z,11.89
2023-02-03T13:15:27.733Z,11.82
2023-02-03T13:18:26.337Z,11.74
2023-02-03T13:20:54.519Z,11.77
2023-02-03T13:23:22.233Z,11.63
2023-02-03T13:26:07.195Z,11.76
2023-02-03T13:29:12.334Z,11.89
2023-02-03T13:31:57.400Z,11.86
2023-02-03T13:34:44.883Z,11.61
2023-02-03T13:37:11.399Z,11.51
2023-02-03T13:39:45.563Z,11.34
2023-02-03T13:42:14.991Z,11.32
2023-02-03T13:44:44.583Z,11.25
2023-02-03T13:47:37.202Z,11.15
2023-02-03T13:50:07.604Z,11.10
2023-02-03T13:52:41.390Z,10.98
2023-02-03T13:55:08.919Z,11.10
2023-02-03T13:57:38.340Z,10.98
2023-02-03T14:00:43.436Z,10.97
2023-02-03T14:03:16.940Z,10.91
2023-02-03T14:05:52.277Z,10.91
2023-02-03T14:08:28.092Z,10.87
2023-02-03T14:11:32.488Z,10.87
2023-02-03T14:14:08.436Z,10.74
2023-02-03T14:16:38.164Z,10.70
2023-02-03T14:19:08.645Z,10.68
2023-02-03T14:21:55.578Z,10.59
2023-02-03T14:24:23.474Z,10.61
2023-02-03T14:26:55.893Z,10.70
2023-02-03T14:29:32.193Z,10.67
2023-02-03T14:31:58.792Z,10.59
2023-02-03T14:34:37.613Z,10.37
2023-02-03T14:37:27.173Z,10.37
2023-02-03T14:40:26.152Z,10.30
2023-02-03T14:43:26.530Z,10.23
2023-02-03T14:46:46.532Z,10.16
2023-02-03T14:49:37.619Z,10.09
2023-02-03T14:52:59.969Z,10.09
2023-02-03T14:56:13.588Z,10.12
2023-02-03T14:58:51.645Z,10.09
2023-02-03T15:01:29.309Z,10.09
2023-02-03T15:04:11.338Z,10.06
2023-02-03T15:06:47.097Z,10.06
2023-02-03T15:09:38.681Z,10.02
2023-02-03T15:12:26.225Z,9.91
2023-02-03T15:14:54.093Z,9.97
2023-02-03T15:17:27.593Z,10.03
2023-02-03T15:19:54.928Z,9.98
2023-02-03T15:22:28.837Z,9.95
2023-02-03T15:24:57.984Z,9.99
2023-02-03T15:27:30.119Z,10.06
2023-02-03T15:29:59.429Z,10.02
2023-02-03T15:32:40.712Z,10.05
2023-02-03T15:35:13.401Z,9.99
2023-02-03T15:37:43.959Z,10.08
2023-02-03T15:40:20.148Z,10.12
2023-02-03T15:42:59.838Z,10.06
2023-02-03T15:45:36.643Z,10.05
2023-02-03T15:48:15.945Z,10.06
2023-02-03T15:50:52.748Z,10.02
2023-02-03T15:53:41.026Z,10.06
2023-02-03T15:56:21.465Z,10.01
2023-02-03T15:58:49.381Z,10.08
2023-02-03T16:01:21.310Z,10.20
2023-02-03T16:03:58.610Z,10.36
2023-02-03T16:06:39.940Z,10.36
2023-02-03T16:09:25.846Z,10.30
2023-02-03T16:12:05.995Z,10.22
2023-02-03T16:14:34.933Z,10.25
2023-02-03T16:17:05.767Z,10.28
2023-02-03T16:19:40.300Z,10.29
2023-02-03T16:22:27.439Z,10.05
2023-02-03T16:24:53.995Z,10.10
2023-02-03T16:27:30.391Z,9.99
2023-02-03T16:30:24.915Z,10.01
2023-02-03T16:33:36.772Z,9.85
2023-02-03T16:36:30.645Z,9.85
2023-02-03T16:39:20.244Z,9.91
2023-02-03T16:42:05.129Z,9.81
2023-02-03T16:44:50.266Z,9.82
2023-02-03T16:47:45.961Z,9.78
2023-02-03T16:50:38.715Z,9.85
2023-02-03T16:53:07.457Z,9.82
2023-02-03T16:55:34.462Z,9.85
2023-02-03T16:58:01.000Z,9.81
2023-02-03T17:00:27.580Z,9.85
2023-02-03T17:02:54.163Z,9.79
2023-02-03T17:05:20.713Z,9.75
2023-02-03T17:07:47.309Z,9.74
2023-02-03T17:10:14.141Z,9.78
2023-02-03T17:12:40.812Z,9.77
2023-02-03T17:15:08.463Z,9.79
2023-02-03T17:17:35.105Z,9.89
2023-02-03T17:20:01.780Z,9.84
2023-02-03T17:22:29.072Z,9.78
2023-02-03T17:24:55.631Z,9.82
2023-02-03T17:27:22.151Z,9.79
2023-02-03T17:29:51.983Z,9.75
2023-02-03T17:32:18.619Z,9.79
2023-02-03T17:34:48.009Z,9.78
2023-02-03T17:37:14.669Z,9.73
2023-02-03T17:53:30.764Z,9.74
2023-02-03T17:55:57.887Z,9.71
2023-02-03T17:58:24.481Z,9.77
2023-02-03T18:00:51.090Z,9.73
2023-02-03T18:03:17.647Z,9.70
2023-02-03T18:05:51.482Z,9.67
2023-02-03T18:08:20.473Z,9.68
2023-02-03T18:10:50.857Z,9.74
2023-02-03T18:13:18.317Z,9.71
2023-02-03T18:15:44.884Z,9.70
2023-02-03T18:18:11.636Z,9.71
2023-02-03T18:20:38.324Z,9.65
2023-02-03T18:23:04.876Z,9.65
2023-02-03T18:25:31.562Z,9.60
2023-02-03T18:27:58.183Z,9.54
2023-02-03T18:30:24.911Z,9.43
2023-02-03T18:32:52.558Z,9.57
2023-02-03T18:35:19.443Z,9.58
2023-02-03T18:37:46.213Z,9.50
2023-02-03T18:40:13.212Z,9.57
2023-02-03T18:42:39.820Z,9.61
2023-02-03T18:45:06.908Z,9.64
2023-02-03T18:47:33.644Z,9.57
2023-02-03T18:50:00.285Z,9.43
2023-02-03T18:52:27.407Z,9.50
2023-02-03T18:54:53.956Z,9.57
2023-02-03T18:57:22.566Z,9.58
2023-02-03T18:59:49.619Z,9.68
2023-02-03T19:02:16.373Z,9.62
2023-02-03T19:04:43.460Z,9.62
2023-02-03T19:07:12.289Z,9.44
2023-02-03T19:09:39.994Z,9.44
2023-02-03T19:12:07.779Z,9.57
2023-02-03T19:14:34.997Z,9.64
2023-02-03T19:17:02.137Z,9.65
2023-02-03T19:19:28.742Z,9.70
2023-02-03T19:21:55.567Z,9.68
2023-02-03T19:24:22.182Z,9.65
2023-02-03T19:26:48.823Z,9.65
2023-02-03T19:29:15.683Z,9.61
2023-02-03T19:31:42.300Z,9.67
2023-02-03T19:34:09.050Z,9.58
2023-02-03T19:36:35.669Z,9.67
2023-02-03T19:39:02.194Z,9.52
2023-02-03T19:41:30.891Z,9.43
2023-02-03T19:43:57.426Z,9.34
2023-02-03T19:46:25.575Z,9.26
2023-02-03T19:48:52.755Z,9.19
2023-02-03T19:51:19.295Z,9.13
2023-02-03T19:53:45.849Z,9.08
2023-02-03T19:56:12.542Z,9.02
2023-02-03T19:58:39.301Z,8.93
2023-02-03T20:01:05.935Z,8.92
2023-02-03T20:03:33.786Z,8.93
2023-02-03T20:06:01.245Z,8.83
2023-02-03T20:08:28.036Z,8.81
2023-02-03T20:10:58.863Z,8.81
2023-02-03T20:13:25.439Z,8.82
2023-02-03T20:15:52.985Z,8.75
2023-02-03T20:18:19.811Z,8.83
2023-02-03T20:20:51.646Z,8.78
2023-02-03T20:23:18.195Z,8.86
2023-02-03T20:25:47.688Z,8.85
2023-02-03T20:28:19.557Z,8.82
2023-02-03T20:30:59.924Z,8.71
2023-02-03T20:33:28.461Z,8.72
2023-02-03T20:35:55.729Z,8.71
2023-02-03T20:38:22.501Z,8.62
2023-02-03T20:40:49.854Z,8.65
2023-02-03T20:43:18.171Z,8.60
2023-02-03T20:45:44.763Z,8.54
2023-02-03T20:48:12.707Z,8.47
2023-02-03T20:50:42.664Z,8.44
2023-02-03T20:53:14.750Z,8.44
2023-02-03T20:55:41.420Z,8.37
2023-02-03T20:58:21.279Z,8.36
2023-02-03T21:00:49.488Z,8.34
2023-02-03T21:03:37.846Z,8.23
2023-02-03T21:06:15.943Z,8.24
2023-02-03T21:08:44.063Z,8.31
2023-02-03T21:11:29.382Z,8.29
2023-02-03T21:13:55.984Z,8.23
2023-02-03T21:16:27.579Z,8.10
2023-02-03T21:18:56.772Z,8.07
2023-02-03T21:21:33.101Z,8.03
2023-02-03T21:23:59.748Z,7.97
2023-02-03T21:26:33.628Z,7.95
2023-02-03T21:29:01.316Z,7.92
2023-02-03T21:31:30.507Z,7.86
2023-02-03T21:33:59.042Z,7.85
2023-02-03T21:36:35.676Z,7.82
2023-02-03T21:39:02.656Z,7.83
2023-02-03T21:41:35.350Z,7.81
2023-02-03T21:44:01.953Z,7.82
2023-02-03T21:46:37.442Z,7.85
2023-02-03T21:49:04.366Z,7.83
2023-02-03T21:51:35.122Z,7.95
2023-02-03T21:54:21.296Z,7.81
2023-02-03T21:56:47.882Z,7.76
2023-02-03T21:59:33.273Z,7.78
2023-02-03T22:01:59.889Z,7.85
2023-02-03T22:04:28.712Z,7.83
2023-02-03T22:06:56.426Z,7.86
2023-02-03T22:09:25.311Z,7.85
2023-02-03T22:11:52.253Z,7.85
2023-02-03T22:14:22.352Z,7.81
2023-02-03T22:16:49.447Z,7.76
2023-02-03T22:19:18.549Z,7.83
2023-02-03T22:21:45.167Z,7.82
2023-02-03T22:24:11.926Z,7.81
2023-02-03T22:26:38.662Z,7.93
2023-02-03T22:29:05.851Z,7.89
2023-02-03T22:31:32.692Z,7.87
2023-02-03T22:33:59.395Z,7.89
2023-02-03T22:36:26.132Z,7.90
2023-02-03T22:38:52.985Z,7.89
2023-02-03T22:41:20.864Z,7.95
2023-02-03T22:43:48.730Z,7.93
2023-02-03T22:46:15.308Z,7.83
2023-02-03T22:48:41.961Z,7.93
2023-02-03T22:51:08.746Z,7.89
2023-02-03T22:53:35.460Z,7.92
2023-02-03T22:56:02.159Z,7.92
2023-02-03T22:58:28.851Z,7.86
2023-02-03T23:00:55.403Z,7.85
2023-02-03T23:03:22.201Z,7.79
2023-02-03T23:05:49.738Z,7.83
2023-02-03T23:08:16.259Z,7.83
2023-02-03T23:10:43.033Z,7.86
2023-02-03T23:13:09.688Z,7.87
2023-02-03T23:15:36.300Z,7.83
2023-02-03T23:18:02.915Z,7.89
2023-02-03T23:20:29.982Z,7.87
2023-02-03T23:22:56.747Z,7.86
2023-02-03T23:25:23.339Z,7.76
2023-02-03T23:27:49.935Z,7.82
2023-02-03T23:30:16.619Z,7.72
2023-02-03T23:32:43.158Z,7.66
2023-02-03T23:35:29.979Z,7.78
2023-02-03T23:37:56.549Z,7.83
2023-02-03T23:40:23.311Z,7.95
2023-02-03T23:42:49.984Z,8.04
2023-02-03T23:45:16.711Z,8.07
2023-02-03T23:47:44.716Z,7.95
2023-02-03T23:50:19.021Z,7.95
2023-02-03T23:52:46.106Z,7.92
2023-02-03T23:55:15.522Z,7.99
2023-02-03T23:57:42.824Z,7.93
